Terminal Aerodrome Forecast
Issued by NWS North Platte, NE

Home | Current Version | Previous Version | Text Only | Print | Product List | Glossary On
Versions: 1 2 3 4 5 6 7 8 9 10 11 12 13 14 15 16
000
FTUS43 KLBF 301127
TAFVTN
TAF
KVTN 301127Z 3012/3112 25008KT P6SM SKC
     FM301800 29010KT P6SM SKC
     FM302300 36008KT P6SM SKC
     FM310200 VRB06KT P6SM SKC=

USA.gov is the U.S. government's official web portal to all federal, state and local government web resources and services.